createdAt,value
2022-09-23T00:02:49.226Z,3.13
2022-09-23T00:06:04.414Z,2.88
2022-09-23T00:09:05.795Z,3.20
2022-09-23T00:12:09.231Z,2.72
2022-09-23T00:15:11.247Z,2.78
2022-09-23T00:18:12.534Z,2.97
2022-09-23T00:21:14.416Z,2.42
2022-09-23T00:24:15.783Z,2.90
2022-09-23T00:27:17.149Z,2.42
2022-09-23T00:30:18.560Z,2.80
2022-09-23T00:33:19.894Z,2.83
2022-09-23T00:36:21.144Z,2.53
2022-09-23T00:39:23.003Z,2.75
2022-09-23T00:42:25.699Z,2.60
2022-09-23T00:45:26.938Z,2.28
2022-09-23T00:48:28.302Z,2.65
2022-09-23T00:51:33.370Z,1.98
2022-09-23T00:54:35.194Z,2.05
2022-09-23T00:57:38.089Z,1.88
2022-09-23T01:00:39.317Z,2.45
2022-09-23T01:03:42.853Z,2.20
2022-09-23T01:06:44.341Z,2.03
2022-09-23T01:09:46.858Z,2.15
2022-09-23T01:13:13.375Z,2.50
2022-09-23T01:16:28.123Z,2.22
2022-09-23T01:19:32.431Z,2.78
2022-09-23T01:22:54.024Z,2.35
2022-09-23T01:26:11.577Z,1.83
2022-09-23T01:29:18.966Z,2.08
2022-09-23T01:32:33.047Z,1.98
2022-09-23T01:35:35.197Z,2.13
2022-09-23T01:38:36.418Z,2.25
2022-09-23T01:42:00.402Z,1.80
2022-09-23T01:45:02.009Z,2.30
2022-09-23T01:48:10.463Z,2.55
2022-09-23T01:51:15.382Z,2.28
2022-09-23T01:54:32.132Z,2.05
2022-09-23T01:57:35.897Z,2.33
2022-09-23T02:00:40.446Z,3.28
2022-09-23T02:03:47.924Z,2.33
2022-09-23T02:06:52.016Z,2.65
2022-09-23T02:09:59.232Z,2.38
2022-09-23T02:13:05.396Z,3.08
2022-09-23T02:16:14.132Z,2.30
2022-09-23T02:19:20.148Z,2.42
2022-09-23T02:22:25.095Z,2.40
2022-09-23T02:25:31.484Z,2.28
2022-09-23T02:28:37.654Z,3.13
2022-09-23T02:31:42.043Z,2.40
2022-09-23T02:34:43.351Z,2.50
2022-09-23T02:37:55.516Z,2.47
2022-09-23T02:40:59.983Z,2.83
2022-09-23T02:44:03.930Z,2.47
2022-09-23T02:47:05.266Z,2.97
2022-09-23T02:50:06.639Z,2.90
2022-09-23T02:53:08.452Z,2.70
2022-09-23T02:56:16.653Z,2.80
2022-09-23T02:59:19.439Z,3.20
2022-09-23T03:02:23.730Z,3.03
2022-09-23T03:05:28.018Z,2.80
2022-09-23T03:08:29.342Z,2.28
2022-09-23T03:11:32.317Z,3.10
2022-09-23T03:14:40.970Z,2.88
2022-09-23T03:17:46.685Z,3.15
2022-09-23T03:21:06.766Z,2.55
2022-09-23T03:24:08.981Z,2.60
2022-09-23T03:27:13.816Z,2.15
2022-09-23T03:30:15.097Z,3.03
2022-09-23T03:33:17.833Z,2.45
2022-09-23T03:36:40.275Z,2.60
2022-09-23T03:39:42.758Z,2.70
2022-09-23T03:42:43.990Z,2.67
2022-09-23T03:45:46.118Z,2.45
2022-09-23T03:48:49.000Z,2.78
2022-09-23T03:51:50.336Z,3.47
2022-09-23T03:54:52.122Z,2.35
2022-09-23T03:57:53.558Z,2.80
2022-09-23T04:00:54.875Z,3.40
2022-09-23T04:03:56.164Z,3.28
2022-09-23T04:06:57.442Z,3.53
2022-09-23T04:09:58.908Z,3.58
2022-09-23T04:13:00.162Z,2.97
2022-09-23T04:16:01.615Z,3.40
2022-09-23T04:19:03.118Z,3.42
2022-09-23T04:22:07.315Z,3.45
2022-09-23T04:25:08.806Z,3.17
2022-09-23T04:28:10.037Z,3.08
2022-09-23T04:31:11.436Z,2.80
2022-09-23T04:34:13.098Z,3.75
2022-09-23T04:37:14.361Z,3.35
2022-09-23T04:40:15.664Z,2.85
2022-09-23T04:43:17.119Z,3.13
2022-09-23T04:46:18.636Z,3.72
2022-09-23T04:49:19.953Z,3.05
2022-09-23T04:52:21.155Z,3.55
2022-09-23T04:55:22.478Z,3.42
2022-09-23T04:58:24.134Z,3.45
2022-09-23T05:01:27.054Z,3.55
2022-09-23T05:04:28.907Z,3.38
2022-09-23T05:07:30.130Z,3.60
2022-09-23T05:10:31.382Z,3.90
2022-09-23T05:13:33.206Z,3.63
2022-09-23T05:16:35.763Z,3.38
2022-09-23T05:19:37.014Z,3.42
2022-09-23T05:22:38.317Z,3.17
2022-09-23T05:25:42.436Z,3.42
2022-09-23T05:28:43.725Z,4.00
2022-09-23T05:31:45.065Z,3.78
2022-09-23T05:34:46.557Z,3.72
2022-09-23T05:37:47.761Z,3.72
2022-09-23T05:41:09.321Z,3.33
2022-09-23T05:44:10.625Z,3.33
2022-09-23T05:47:11.842Z,3.72
2022-09-23T05:50:13.111Z,3.95
2022-09-23T05:53:14.363Z,4.10
2022-09-23T05:56:16.631Z,5.90
2022-09-23T05:59:17.899Z,5.10
2022-09-23T06:02:19.205Z,5.65
2022-09-23T06:05:20.613Z,6.55
2022-09-23T06:08:22.725Z,5.55
2022-09-23T06:11:24.132Z,5.75
2022-09-23T06:14:25.411Z,3.97
2022-09-23T06:17:26.631Z,4.47
2022-09-23T06:20:28.321Z,4.97
2022-09-23T06:23:29.618Z,4.18
2022-09-23T06:26:33.507Z,4.18
2022-09-23T06:29:34.730Z,4.10
2022-09-23T06:32:35.967Z,4.13
2022-09-23T06:35:37.256Z,3.65
2022-09-23T06:38:39.638Z,3.83
2022-09-23T06:41:40.966Z,4.18
2022-09-23T06:44:42.550Z,3.92
2022-09-23T06:47:44.352Z,3.50
2022-09-23T06:50:45.695Z,3.92
2022-09-23T06:53:47.497Z,4.07
2022-09-23T06:56:48.731Z,3.47
2022-09-23T06:59:50.251Z,3.80
2022-09-23T07:02:51.633Z,4.18
2022-09-23T07:05:56.217Z,4.28
2022-09-23T07:11:58.670Z,3.78
2022-09-23T07:14:59.922Z,3.58
2022-09-23T07:18:01.500Z,3.67
2022-09-23T07:21:06.980Z,3.70
2022-09-23T07:24:08.420Z,4.05
2022-09-23T07:27:09.835Z,4.07
2022-09-23T07:30:19.758Z,3.70
2022-09-23T07:33:31.809Z,4.45
2022-09-23T07:36:37.099Z,3.65
2022-09-23T07:39:39.666Z,3.20
2022-09-23T07:42:42.016Z,5.07
2022-09-23T07:45:43.586Z,3.20
2022-09-23T07:48:45.680Z,3.85
2022-09-23T07:51:46.982Z,3.75
2022-09-23T07:54:48.659Z,3.33
2022-09-23T07:57:49.923Z,3.60
2022-09-23T08:00:51.307Z,3.95
2022-09-23T08:03:52.766Z,3.97
2022-09-23T08:06:55.309Z,3.80
2022-09-23T08:09:56.517Z,3.22
2022-09-23T08:12:57.770Z,3.30
2022-09-23T08:15:59.667Z,4.05
2022-09-23T08:19:01.220Z,3.90
2022-09-23T08:22:02.564Z,2.88
2022-09-23T08:25:04.996Z,3.95
2022-09-23T08:28:08.378Z,3.08
2022-09-23T08:31:09.682Z,3.53
2022-09-23T08:34:11.170Z,3.60
2022-09-23T08:37:12.479Z,3.80
2022-09-23T08:40:14.195Z,2.90
2022-09-23T08:43:19.234Z,3.13
2022-09-23T08:46:27.195Z,3.15
2022-09-23T08:49:33.689Z,3.00
2022-09-23T08:52:35.547Z,3.38
2022-09-23T08:55:39.948Z,3.38
2022-09-23T08:59:01.798Z,3.20
2022-09-23T09:02:09.351Z,2.92
2022-09-23T09:05:11.053Z,3.40
2022-09-23T09:08:12.475Z,3.78
2022-09-23T09:11:14.886Z,3.97
2022-09-23T09:14:19.006Z,3.33
2022-09-23T09:17:24.674Z,3.53
2022-09-23T09:20:44.984Z,2.80
2022-09-23T09:23:54.669Z,3.47
2022-09-23T09:26:56.082Z,3.10
2022-09-23T09:29:59.094Z,3.53
2022-09-23T09:33:00.391Z,3.22
2022-09-23T09:36:20.276Z,3.20
2022-09-23T09:39:25.983Z,3.38
2022-09-23T09:42:33.874Z,3.17
2022-09-23T09:45:57.855Z,3.85
2022-09-23T09:49:05.730Z,3.30
2022-09-23T09:52:26.805Z,3.10
2022-09-23T09:55:28.661Z,3.63
2022-09-23T09:58:44.044Z,3.55
2022-09-23T10:01:46.133Z,3.20
2022-09-23T10:04:53.964Z,3.67
2022-09-23T10:07:55.447Z,3.10
2022-09-23T10:11:01.163Z,3.60
2022-09-23T10:17:49.562Z,3.65
2022-09-23T10:18:22.281Z,3.63
2022-09-23T10:21:27.974Z,3.92
2022-09-23T10:24:30.451Z,3.53
2022-09-23T10:27:33.383Z,3.63
2022-09-23T10:30:38.426Z,4.00
2022-09-23T10:33:41.360Z,4.13
2022-09-23T10:36:44.646Z,4.18
2022-09-23T10:40:04.571Z,4.55
2022-09-23T10:43:24.583Z,4.07
2022-09-23T10:46:39.154Z,4.30
2022-09-23T10:49:46.662Z,4.10
2022-09-23T10:53:02.315Z,3.60
2022-09-23T10:56:13.010Z,3.70
2022-09-23T10:59:40.762Z,3.58
2022-09-23T11:02:41.991Z,4.50
2022-09-23T11:05:50.097Z,4.03
2022-09-23T11:09:06.959Z,3.53
2022-09-23T11:12:14.311Z,4.30
2022-09-23T11:15:24.699Z,3.65
2022-09-23T11:18:47.766Z,3.40
2022-09-23T11:21:49.016Z,3.60
2022-09-23T11:24:50.363Z,3.92
2022-09-23T11:28:00.508Z,3.55
2022-09-23T11:31:14.450Z,3.42
2022-09-23T11:34:34.408Z,3.97
2022-09-23T11:37:39.958Z,2.88
2022-09-23T11:40:44.014Z,2.90
2022-09-23T11:43:52.175Z,2.85
2022-09-23T11:46:59.424Z,2.85
2022-09-23T11:50:10.729Z,2.67
2022-09-23T11:53:19.449Z,2.97
2022-09-23T11:56:42.871Z,2.85
2022-09-23T11:59:50.111Z,2.92
2022-09-23T12:03:01.361Z,2.70
2022-09-23T12:06:09.121Z,3.00
2022-09-23T12:09:47.316Z,2.63
2022-09-23T12:13:04.871Z,2.53
2022-09-23T12:16:06.091Z,2.72
2022-09-23T12:19:19.599Z,3.10
2022-09-23T12:22:29.275Z,2.80
2022-09-23T12:28:41.467Z,2.92
2022-09-23T12:31:44.161Z,3.40
2022-09-23T12:34:49.877Z,3.00
2022-09-23T12:40:55.918Z,2.80
2022-09-23T12:44:13.479Z,3.08
2022-09-23T12:47:14.818Z,2.90
2022-09-23T12:50:34.824Z,3.20
2022-09-23T12:53:36.143Z,2.35
2022-09-23T12:56:37.412Z,3.08
2022-09-23T12:59:58.455Z,2.90
2022-09-23T13:03:18.992Z,2.58
2022-09-23T13:06:38.597Z,2.72
2022-09-23T13:09:41.819Z,2.60
2022-09-23T13:12:43.567Z,2.47
2022-09-23T13:15:45.720Z,2.30
2022-09-23T13:18:49.993Z,2.50
2022-09-23T13:21:51.245Z,2.60
2022-09-23T13:24:53.676Z,2.70
2022-09-23T13:27:56.103Z,2.60
2022-09-23T13:30:58.427Z,2.45
2022-09-23T13:34:06.736Z,2.30
2022-09-23T13:37:13.739Z,2.40
2022-09-23T13:40:23.949Z,2.33
2022-09-23T13:43:28.234Z,2.40
2022-09-23T13:46:31.121Z,2.40
2022-09-23T13:49:33.975Z,2.40
2022-09-23T13:52:35.226Z,2.45
2022-09-23T13:55:37.642Z,2.20
2022-09-23T13:58:39.524Z,2.85
2022-09-23T14:01:40.773Z,2.20
2022-09-23T14:04:42.364Z,3.38
2022-09-23T14:07:44.393Z,2.30
2022-09-23T14:10:46.836Z,2.22
2022-09-23T14:13:50.915Z,2.30
2022-09-23T14:16:52.756Z,2.30
2022-09-23T14:19:54.127Z,2.15
2022-09-23T14:23:05.395Z,3.05
2022-09-23T14:26:06.651Z,2.35
2022-09-23T14:29:16.383Z,2.42
2022-09-23T14:32:20.908Z,2.25
2022-09-23T14:35:25.947Z,2.53
2022-09-23T14:38:47.011Z,2.70
2022-09-23T14:41:48.254Z,2.28
2022-09-23T14:44:50.467Z,3.20
2022-09-23T14:47:53.522Z,2.40
2022-09-23T14:50:57.035Z,2.15
2022-09-23T14:54:18.239Z,2.13
2022-09-23T14:57:23.162Z,3.00
2022-09-23T15:00:24.558Z,2.10
2022-09-23T15:03:28.159Z,2.20
2022-09-23T15:06:29.486Z,2.08
2022-09-23T15:09:31.804Z,3.42
2022-09-23T15:12:33.065Z,2.13
2022-09-23T15:15:35.554Z,2.65
2022-09-23T15:18:38.771Z,2.50
2022-09-23T15:21:42.037Z,2.38
2022-09-23T15:24:47.277Z,2.25
2022-09-23T15:28:03.253Z,2.40
2022-09-23T15:31:05.787Z,2.08
2022-09-23T15:34:07.231Z,2.40
2022-09-23T15:37:14.637Z,2.65
2022-09-23T15:40:21.180Z,2.40
2022-09-23T15:43:27.115Z,2.47
2022-09-23T15:46:29.525Z,2.67
2022-09-23T15:49:38.934Z,2.47
2022-09-23T15:52:41.415Z,2.13
2022-09-23T15:55:42.780Z,2.28
2022-09-23T15:58:44.040Z,2.08
2022-09-23T16:01:45.951Z,2.25
2022-09-23T16:04:50.207Z,2.20
2022-09-23T16:07:52.461Z,2.50
2022-09-23T16:10:54.881Z,2.22
2022-09-23T16:13:56.179Z,2.40
2022-09-23T16:16:57.543Z,2.30
2022-09-23T16:19:58.822Z,2.40
2022-09-23T16:23:01.927Z,2.20
2022-09-23T16:26:04.754Z,2.50
2022-09-23T16:29:06.031Z,2.47
2022-09-23T16:32:07.546Z,2.65
2022-09-23T16:35:09.115Z,2.38
2022-09-23T16:38:10.379Z,2.33
2022-09-23T16:41:11.816Z,2.28
2022-09-23T16:44:14.271Z,2.53
2022-09-23T16:47:15.987Z,2.70
2022-09-23T16:50:18.141Z,2.70
2022-09-23T16:53:19.509Z,2.38
2022-09-23T16:56:27.274Z,2.70
2022-09-23T16:59:49.335Z,2.95
2022-09-23T17:03:09.479Z,2.63
2022-09-23T17:06:12.891Z,2.38
2022-09-23T17:09:14.235Z,2.85
2022-09-23T17:12:29.222Z,3.03
2022-09-23T17:15:30.447Z,3.28
2022-09-23T17:18:31.726Z,3.60
2022-09-23T17:21:33.001Z,2.83
2022-09-23T17:24:34.413Z,2.90
2022-09-23T17:27:37.108Z,3.03
2022-09-23T17:30:39.246Z,3.22
2022-09-23T17:33:41.153Z,2.80
2022-09-23T17:36:42.393Z,3.30
2022-09-23T17:39:43.655Z,3.70
2022-09-23T17:42:44.926Z,4.95
2022-09-23T17:45:46.219Z,3.90
2022-09-23T17:48:47.511Z,3.58
2022-09-23T17:51:48.755Z,3.83
2022-09-23T17:54:50.000Z,3.97
2022-09-23T17:57:51.436Z,3.90
2022-09-23T18:00:52.801Z,5.80
2022-09-23T18:03:58.477Z,4.85
2022-09-23T18:06:59.722Z,6.28
2022-09-23T18:10:00.954Z,5.78
2022-09-23T18:13:02.214Z,4.75
2022-09-23T18:16:03.691Z,4.90
2022-09-23T18:19:05.754Z,5.35
2022-09-23T18:22:06.995Z,4.60
2022-09-23T18:25:28.469Z,4.18
2022-09-23T18:28:34.077Z,3.63
2022-09-23T18:31:37.880Z,3.35
2022-09-23T18:34:39.179Z,4.18
2022-09-23T18:37:40.448Z,5.35
2022-09-23T18:40:56.112Z,5.18
2022-09-23T18:43:57.547Z,4.30
2022-09-23T18:46:58.782Z,3.63
2022-09-23T18:50:18.435Z,5.25
2022-09-23T18:53:19.658Z,5.70
2022-09-23T18:56:20.994Z,5.35
2022-09-23T18:59:24.991Z,5.38
2022-09-23T19:02:26.241Z,5.18
2022-09-23T19:05:27.691Z,5.40
2022-09-23T19:08:29.085Z,5.07
2022-09-23T19:11:30.927Z,4.68
2022-09-23T19:14:32.296Z,5.18
2022-09-23T19:17:33.531Z,5.03
2022-09-23T19:20:34.768Z,5.75
2022-09-23T19:23:36.105Z,5.93
2022-09-23T19:26:38.823Z,5.40
2022-09-23T19:29:40.149Z,5.72
2022-09-23T19:32:43.943Z,5.65
2022-09-23T19:35:47.233Z,5.57
2022-09-23T19:38:48.907Z,5.40
2022-09-23T19:41:52.305Z,5.30
2022-09-23T19:44:55.038Z,5.70
2022-09-23T19:47:57.176Z,5.38
2022-09-23T19:50:58.461Z,5.53
2022-09-23T19:54:01.074Z,5.15
2022-09-23T19:57:02.554Z,6.60
2022-09-23T20:00:04.517Z,6.13
2022-09-23T20:03:06.379Z,5.95
2022-09-23T20:06:07.809Z,5.15
2022-09-23T20:09:09.359Z,5.15
2022-09-23T20:12:10.633Z,4.97
2022-09-23T20:15:11.972Z,5.22
2022-09-23T20:18:13.192Z,4.90
2022-09-23T20:21:15.368Z,6.30
2022-09-23T20:24:16.610Z,6.15
2022-09-23T20:27:17.994Z,5.53
2022-09-23T20:30:19.997Z,5.88
2022-09-23T20:33:22.232Z,5.63
2022-09-23T20:36:24.226Z,5.20
2022-09-23T20:39:25.579Z,5.20
2022-09-23T20:42:26.881Z,5.97
2022-09-23T20:45:28.112Z,5.18
2022-09-23T20:48:29.700Z,4.88
2022-09-23T20:51:33.191Z,5.72
2022-09-23T20:54:34.613Z,5.15
2022-09-23T20:57:35.880Z,5.88
2022-09-23T21:00:37.214Z,6.00
2022-09-23T21:03:39.817Z,6.40
2022-09-23T21:06:41.139Z,6.30
2022-09-23T21:09:42.389Z,6.82
2022-09-23T21:12:45.109Z,5.80
2022-09-23T21:15:46.394Z,5.88
2022-09-23T21:18:48.218Z,5.80
2022-09-23T21:21:49.539Z,5.32
2022-09-23T21:25:26.469Z,5.18
2022-09-23T21:28:12.356Z,5.13
2022-09-23T21:31:23.059Z,5.47
2022-09-23T21:37:29.277Z,5.00
2022-09-23T21:40:49.471Z,5.40
2022-09-23T21:43:50.821Z,5.28
2022-09-23T21:46:52.129Z,5.57
2022-09-23T21:49:53.445Z,5.65
2022-09-23T21:52:54.867Z,5.80
2022-09-23T21:56:03.899Z,5.28
2022-09-23T21:59:05.720Z,5.03
2022-09-23T22:02:07.160Z,5.68
2022-09-23T22:05:08.802Z,5.47
2022-09-23T22:08:10.307Z,5.30
2022-09-23T22:11:31.359Z,5.65
2022-09-23T22:14:32.925Z,5.68
2022-09-23T22:17:34.204Z,5.53
2022-09-23T22:20:35.529Z,5.50
2022-09-23T22:23:36.742Z,5.07
2022-09-23T22:26:39.791Z,6.00
2022-09-23T22:29:59.883Z,5.40
2022-09-23T22:33:01.678Z,5.93
2022-09-23T22:36:03.688Z,5.38
2022-09-23T22:39:05.071Z,6.10
2022-09-23T22:42:06.354Z,5.60
2022-09-23T22:45:08.624Z,5.82
2022-09-23T22:48:09.847Z,6.38
2022-09-23T22:51:12.138Z,6.88
2022-09-23T22:54:13.371Z,6.20
2022-09-23T22:57:15.238Z,5.68
2022-09-23T23:00:16.524Z,6.55
2022-09-23T23:03:20.408Z,6.20
2022-09-23T23:06:21.810Z,6.20
2022-09-23T23:09:23.034Z,5.57
2022-09-23T23:12:24.327Z,6.18
2022-09-23T23:15:25.586Z,5.95
2022-09-23T23:18:31.471Z,5.88
2022-09-23T23:21:33.529Z,5.60
2022-09-23T23:24:34.750Z,5.70
2022-09-23T23:27:35.989Z,6.20
2022-09-23T23:30:37.225Z,5.55
2022-09-23T23:33:38.497Z,6.00
2022-09-23T23:36:40.255Z,5.80
2022-09-23T23:39:41.530Z,5.30
2022-09-23T23:42:42.776Z,5.45
2022-09-23T23:45:44.027Z,5.40
2022-09-23T23:48:48.090Z,5.72
2022-09-23T23:51:49.712Z,5.65
2022-09-23T23:54:51.569Z,5.85
2022-09-23T23:57:52.804Z,5.82
